Time;durP1;ratioP1;P1;durP2;ratioP2;P2;SDS_P1;SDS_P2;PMS_P1;PMS_P2;Temp;Humidity;BMP_temperature;BMP_pressure;BME280_temperature;BME280_humidity;BME280_pressure;Samples;Min_cycle;Max_cycle;Signal;HPM_P1;HPM_P2
2023/08/29 00:01:17;;;;;;;16.50;10.48;;;;;;;;;;4988333;28;20127;-63
2023/08/29 00:03:44;;;;;;;15.65;10.23;;;;;;;;;;4987038;28;20093;-63
2023/08/29 00:06:11;;;;;;;16.05;10.82;;;;;;;;;;4990188;28;20345;-64
2023/08/29 00:08:38;;;;;;;13.65;9.88;;;;;;;;;;4989548;28;20042;-65
2023/08/29 00:11:04;;;;;;;15.75;9.68;;;;;;;;;;4990090;28;20597;-62
2023/08/29 00:13:31;;;;;;;18.88;10.27;;;;;;;;;;4991021;28;21612;-65
2023/08/29 00:15:58;;;;;;;18.00;10.98;;;;;;;;;;4992031;28;20042;-63
2023/08/29 00:18:24;;;;;;;15.60;10.38;;;;;;;;;;4989361;28;20066;-63
2023/08/29 00:20:51;;;;;;;14.00;9.30;;;;;;;;;;4990978;28;20049;-65
2023/08/29 00:23:18;;;;;;;17.90;11.05;;;;;;;;;;4988841;28;20038;-65
2023/08/29 00:25:46;;;;;;;14.73;10.15;;;;;;;;;;4992116;28;20042;-64
2023/08/29 00:28:13;;;;;;;14.18;9.85;;;;;;;;;;4991655;28;20061;-63
2023/08/29 00:30:40;;;;;;;16.77;10.00;;;;;;;;;;4993850;28;20038;-62
2023/08/29 00:33:09;;;;;;;16.20;9.88;;;;;;;;;;4990976;28;20579;-64
2023/08/29 00:35:36;;;;;;;16.58;9.80;;;;;;;;;;4978504;28;20042;-62
2023/08/29 00:38:03;;;;;;;18.75;11.80;;;;;;;;;;4990349;28;21362;-64
2023/08/29 00:40:33;;;;;;;19.20;10.75;;;;;;;;;;4991676;28;20136;-63
2023/08/29 00:43:00;;;;;;;15.82;10.18;;;;;;;;;;4989575;28;20061;-62
2023/08/29 00:45:31;;;;;;;17.45;10.13;;;;;;;;;;4991148;28;20046;-64
2023/08/29 00:47:57;;;;;;;16.13;9.90;;;;;;;;;;4992626;28;20718;-63
2023/08/29 00:50:25;;;;;;;17.73;10.32;;;;;;;;;;4992424;28;20271;-62
2023/08/29 00:52:54;;;;;;;18.88;9.75;;;;;;;;;;4991148;28;20045;-64
2023/08/29 00:55:21;;;;;;;14.98;10.30;;;;;;;;;;4993342;28;20045;-63
2023/08/29 00:57:50;;;;;;;20.08;10.68;;;;;;;;;;4989417;28;20038;-63
2023/08/29 01:00:17;;;;;;;18.50;10.57;;;;;;;;;;4990025;28;20391;-70
2023/08/29 01:02:44;;;;;;;15.65;10.88;;;;;;;;;;4991206;28;20042;-63
2023/08/29 01:05:10;;;;;;;18.35;10.50;;;;;;;;;;5004394;28;20613;-64
2023/08/29 01:07:37;;;;;;;18.45;11.77;;;;;;;;;;4992561;28;20072;-63
2023/08/29 01:10:03;;;;;;;17.02;10.35;;;;;;;;;;4994604;28;20048;-64
2023/08/29 01:12:38;;;;;;;17.02;10.43;;;;;;;;;;4992637;28;20348;-65
2023/08/29 01:15:10;;;;;;;15.63;10.05;;;;;;;;;;4996010;28;20191;-65
2023/08/29 01:17:42;;;;;;;16.98;10.18;;;;;;;;;;5010784;28;20044;-64
2023/08/29 01:20:09;;;;;;;18.23;10.05;;;;;;;;;;5002424;28;20038;-63
2023/08/29 01:22:45;;;;;;;16.95;10.80;;;;;;;;;;4994040;28;20046;-60
2023/08/29 01:25:12;;;;;;;15.73;10.40;;;;;;;;;;4993889;28;20136;-61
2023/08/29 01:27:39;;;;;;;16.42;10.00;;;;;;;;;;4993956;28;20084;-59
2023/08/29 01:30:06;;;;;;;15.30;10.15;;;;;;;;;;5000331;28;20042;-61
2023/08/29 01:32:33;;;;;;;15.95;10.57;;;;;;;;;;4994379;28;20100;-62
2023/08/29 01:34:59;;;;;;;21.83;10.52;;;;;;;;;;4994134;28;20062;-59
2023/08/29 01:37:26;;;;;;;19.77;11.25;;;;;;;;;;4995781;28;20464;-60
2023/08/29 01:39:53;;;;;;;18.10;10.95;;;;;;;;;;4994867;28;20046;-60
2023/08/29 01:42:19;;;;;;;20.15;11.88;;;;;;;;;;4991019;28;20137;-62
2023/08/29 01:44:46;;;;;;;17.27;11.68;;;;;;;;;;5010119;28;20530;-60
2023/08/29 01:47:12;;;;;;;18.20;11.95;;;;;;;;;;4986238;28;20049;-62
2023/08/29 01:49:40;;;;;;;17.10;11.73;;;;;;;;;;5001475;28;20133;-60
2023/08/29 01:52:08;;;;;;;19.40;11.32;;;;;;;;;;4992854;28;20034;-62
2023/08/29 01:54:35;;;;;;;19.92;12.30;;;;;;;;;;4991532;28;20065;-60
2023/08/29 01:57:02;;;;;;;21.58;12.50;;;;;;;;;;4993653;28;20046;-62
2023/08/29 01:59:30;;;;;;;20.90;12.55;;;;;;;;;;4992779;28;20092;-62
2023/08/29 02:01:59;;;;;;;18.85;12.60;;;;;;;;;;4995740;28;20124;-63
2023/08/29 02:04:25;;;;;;;19.73;11.93;;;;;;;;;;4992810;28;20184;-65
2023/08/29 02:06:52;;;;;;;21.67;12.15;;;;;;;;;;4994940;28;20506;-62
2023/08/29 02:09:19;;;;;;;22.20;13.00;;;;;;;;;;4991035;28;20037;-63
2023/08/29 02:11:46;;;;;;;23.42;13.00;;;;;;;;;;4992595;28;20038;-64
2023/08/29 02:14:12;;;;;;;23.90;12.00;;;;;;;;;;4992633;28;20137;-62
2023/08/29 02:16:39;;;;;;;21.27;13.02;;;;;;;;;;4996931;28;20762;-59
2023/08/29 02:19:05;;;;;;;23.42;14.25;;;;;;;;;;4995680;28;20042;-62
2023/08/29 02:21:32;;;;;;;22.80;12.82;;;;;;;;;;4992238;28;20597;-64
2023/08/29 02:23:59;;;;;;;23.02;13.52;;;;;;;;;;5009449;28;20077;-63
2023/08/29 02:26:25;;;;;;;21.92;12.90;;;;;;;;;;4993097;28;20038;-64
2023/08/29 02:28:55;;;;;;;21.48;12.82;;;;;;;;;;4997400;28;20041;-63
2023/08/29 02:31:22;;;;;;;20.83;12.07;;;;;;;;;;4996567;28;20034;-62
2023/08/29 02:33:49;;;;;;;23.27;12.18;;;;;;;;;;5007445;28;20029;-62
2023/08/29 02:36:15;;;;;;;23.63;12.90;;;;;;;;;;4993828;28;20100;-64
2023/08/29 02:38:42;;;;;;;28.10;13.32;;;;;;;;;;4990416;28;20512;-62
2023/08/29 02:41:11;;;;;;;21.73;13.27;;;;;;;;;;4993340;28;20045;-63
2023/08/29 02:43:38;;;;;;;21.52;12.48;;;;;;;;;;4990115;28;20103;-63
2023/08/29 02:46:07;;;;;;;20.77;13.10;;;;;;;;;;4991425;28;20513;-61
2023/08/29 02:48:33;;;;;;;21.42;13.13;;;;;;;;;;4990458;28;20056;-61
2023/08/29 02:51:00;;;;;;;22.80;13.60;;;;;;;;;;4996813;28;20053;-63
2023/08/29 02:53:26;;;;;;;18.88;12.18;;;;;;;;;;4989815;28;20124;-60
2023/08/29 02:55:53;;;;;;;26.95;12.90;;;;;;;;;;4991288;28;20034;-61
2023/08/29 02:58:20;;;;;;;22.08;13.57;;;;;;;;;;4988454;28;20610;-62
2023/08/29 03:00:49;;;;;;;22.05;14.45;;;;;;;;;;4996697;28;20168;-63
2023/08/29 03:03:17;;;;;;;23.23;12.93;;;;;;;;;;4993299;28;20831;-60
2023/08/29 03:05:43;;;;;;;25.40;13.95;;;;;;;;;;4998173;28;20065;-60
2023/08/29 03:08:10;;;;;;;26.05;15.27;;;;;;;;;;4992308;28;20270;-59
2023/08/29 03:10:38;;;;;;;23.52;13.95;;;;;;;;;;4991108;28;21760;-61
2023/08/29 03:13:05;;;;;;;20.65;12.50;;;;;;;;;;4991900;28;22047;-63
2023/08/29 03:15:33;;;;;;;19.10;11.90;;;;;;;;;;4990375;28;20419;-62
2023/08/29 03:17:59;;;;;;;25.17;12.25;;;;;;;;;;4993642;28;20085;-61
2023/08/29 03:20:26;;;;;;;28.23;12.02;;;;;;;;;;4990461;28;20042;-64
2023/08/29 03:22:53;;;;;;;23.15;11.90;;;;;;;;;;4993385;28;20140;-65
2023/08/29 03:25:20;;;;;;;20.60;11.95;;;;;;;;;;4988662;28;20057;-64
2023/08/29 03:27:47;;;;;;;19.73;12.27;;;;;;;;;;4993242;28;20322;-62
2023/08/29 03:30:14;;;;;;;25.63;13.20;;;;;;;;;;4993174;28;20037;-62
2023/08/29 03:32:41;;;;;;;28.38;14.10;;;;;;;;;;4992530;28;20112;-63
2023/08/29 03:35:08;;;;;;;23.08;12.10;;;;;;;;;;4989976;28;20130;-62
2023/08/29 03:37:35;;;;;;;22.48;11.70;;;;;;;;;;4990127;28;20514;-62
2023/08/29 03:40:02;;;;;;;22.48;12.02;;;;;;;;;;4992775;28;20053;-64
2023/08/29 03:42:29;;;;;;;20.98;11.63;;;;;;;;;;4989535;28;20511;-64
2023/08/29 03:44:55;;;;;;;25.30;12.13;;;;;;;;;;4990160;28;20640;-63
2023/08/29 03:47:23;;;;;;;18.90;11.25;;;;;;;;;;4988527;28;20137;-64
2023/08/29 03:49:50;;;;;;;24.63;12.05;;;;;;;;;;4990157;28;20041;-64
2023/08/29 03:52:23;;;;;;;20.70;11.88;;;;;;;;;;4991636;28;20395;-66
2023/08/29 03:54:50;;;;;;;28.65;13.85;;;;;;;;;;4989714;28;20056;-64
2023/08/29 03:57:16;;;;;;;22.63;12.40;;;;;;;;;;4992742;28;21404;-66
2023/08/29 03:59:43;;;;;;;20.70;11.98;;;;;;;;;;4993387;28;20037;-65
2023/08/29 04:02:10;;;;;;;23.95;11.13;;;;;;;;;;4994141;28;20461;-63
2023/08/29 04:04:36;;;;;;;34.13;12.63;;;;;;;;;;4993245;28;20546;-64
2023/08/29 04:07:04;;;;;;;20.90;11.10;;;;;;;;;;4989942;28;20095;-64
2023/08/29 04:09:31;;;;;;;27.55;12.50;;;;;;;;;;4991945;28;20065;-64
2023/08/29 04:11:58;;;;;;;19.13;11.48;;;;;;;;;;4991796;28;20052;-64
2023/08/29 04:14:24;;;;;;;21.52;11.70;;;;;;;;;;4993301;28;20112;-64
2023/08/29 04:16:51;;;;;;;21.58;12.00;;;;;;;;;;4990165;28;20099;-64
2023/08/29 04:19:17;;;;;;;20.17;10.90;;;;;;;;;;4991982;28;20053;-65
2023/08/29 04:21:44;;;;;;;21.85;11.23;;;;;;;;;;4990192;28;20635;-64
2023/08/29 04:24:11;;;;;;;20.05;11.23;;;;;;;;;;4991946;28;20099;-64
2023/08/29 04:26:37;;;;;;;25.27;12.18;;;;;;;;;;4993788;28;20061;-63
2023/08/29 04:29:04;;;;;;;22.00;12.15;;;;;;;;;;5011883;28;20053;-65
2023/08/29 04:31:30;;;;;;;19.83;11.18;;;;;;;;;;4997214;28;20423;-63
2023/08/29 04:33:59;;;;;;;29.70;11.73;;;;;;;;;;5009575;28;20556;-63
2023/08/29 04:36:26;;;;;;;18.25;10.95;;;;;;;;;;5007278;28;20034;-62
2023/08/29 04:38:52;;;;;;;21.75;11.32;;;;;;;;;;4999917;28;20141;-64
2023/08/29 04:41:19;;;;;;;19.35;11.75;;;;;;;;;;5008414;28;20468;-63
2023/08/29 04:43:45;;;;;;;26.05;12.00;;;;;;;;;;4995869;28;21118;-65
2023/08/29 04:46:12;;;;;;;20.55;11.38;;;;;;;;;;4996812;28;20038;-65
2023/08/29 04:48:38;;;;;;;26.35;11.63;;;;;;;;;;4997160;28;20030;-63
2023/08/29 04:51:05;;;;;;;21.35;11.95;;;;;;;;;;5012447;28;20068;-63
2023/08/29 04:53:32;;;;;;;20.77;11.55;;;;;;;;;;4995821;28;20030;-66
2023/08/29 04:56:00;;;;;;;22.48;12.73;;;;;;;;;;4996037;28;20045;-65
2023/08/29 04:58:26;;;;;;;22.85;11.98;;;;;;;;;;4992735;28;20464;-65
2023/08/29 05:00:53;;;;;;;22.35;11.68;;;;;;;;;;4995431;28;20179;-65
2023/08/29 05:03:20;;;;;;;30.77;12.60;;;;;;;;;;4995758;28;20413;-64
2023/08/29 05:05:47;;;;;;;22.77;11.50;;;;;;;;;;4992782;28;20708;-66
2023/08/29 05:08:36;;;;;;;22.63;11.88;;;;;;;;;;5007571;28;20060;-65
2023/08/29 05:11:03;;;;;;;21.38;10.82;;;;;;;;;;5010031;28;20053;-66
2023/08/29 05:13:29;;;;;;;21.15;11.68;;;;;;;;;;5006757;28;20120;-65
2023/08/29 05:15:56;;;;;;;21.77;12.00;;;;;;;;;;4987964;28;20053;-65
2023/08/29 05:18:23;;;;;;;20.90;11.70;;;;;;;;;;5009248;28;20041;-66
2023/08/29 05:20:49;;;;;;;23.02;11.68;;;;;;;;;;5008299;28;20057;-65
2023/08/29 05:23:16;;;;;;;23.60;12.10;;;;;;;;;;5008646;28;20037;-65
2023/08/29 05:25:43;;;;;;;20.20;11.48;;;;;;;;;;5008894;28;20053;-65
2023/08/29 05:28:12;;;;;;;24.30;11.65;;;;;;;;;;5010519;28;20041;-64
2023/08/29 05:30:39;;;;;;;21.70;12.25;;;;;;;;;;5008485;28;20049;-65
2023/08/29 05:33:05;;;;;;;22.35;12.32;;;;;;;;;;5008521;28;20095;-65
2023/08/29 05:35:32;;;;;;;24.70;13.15;;;;;;;;;;5008020;28;20529;-65
2023/08/29 05:37:59;;;;;;;26.83;13.50;;;;;;;;;;5007699;28;20052;-65
2023/08/29 05:40:25;;;;;;;20.27;11.65;;;;;;;;;;5007323;28;20072;-66
2023/08/29 05:42:52;;;;;;;21.08;12.32;;;;;;;;;;5006899;28;20072;-64
2023/08/29 05:45:18;;;;;;;23.90;12.43;;;;;;;;;;5008702;28;20217;-66
2023/08/29 05:47:45;;;;;;;24.85;12.73;;;;;;;;;;5008548;28;20053;-65
2023/08/29 05:50:12;;;;;;;20.25;11.95;;;;;;;;;;5007656;28;20121;-65
2023/08/29 05:52:38;;;;;;;25.05;11.98;;;;;;;;;;4990577;28;20074;-67
2023/08/29 05:55:05;;;;;;;27.20;11.85;;;;;;;;;;4994162;28;20053;-66
2023/08/29 05:57:32;;;;;;;25.33;12.80;;;;;;;;;;4994537;28;20844;-65
2023/08/29 05:59:58;;;;;;;25.02;12.40;;;;;;;;;;4994710;28;20247;-65
2023/08/29 06:02:26;;;;;;;19.90;12.07;;;;;;;;;;4994221;28;20057;-65
2023/08/29 06:04:53;;;;;;;23.50;12.88;;;;;;;;;;4997847;28;20041;-64
2023/08/29 06:07:19;;;;;;;26.20;12.02;;;;;;;;;;4994381;28;20545;-66
2023/08/29 06:09:46;;;;;;;25.52;12.38;;;;;;;;;;4992023;28;20079;-64
2023/08/29 06:12:13;;;;;;;23.50;12.77;;;;;;;;;;4994108;28;20419;-65
2023/08/29 06:14:39;;;;;;;24.63;12.05;;;;;;;;;;4991464;28;20613;-66
2023/08/29 06:17:06;;;;;;;21.98;11.93;;;;;;;;;;4997037;28;20926;-65
2023/08/29 06:19:33;;;;;;;24.23;12.27;;;;;;;;;;4990906;28;20068;-65
2023/08/29 06:22:00;;;;;;;33.17;12.88;;;;;;;;;;4992180;28;20522;-65
2023/08/29 06:24:26;;;;;;;26.15;12.52;;;;;;;;;;4989409;28;20053;-65
2023/08/29 06:26:54;;;;;;;26.23;12.00;;;;;;;;;;4993256;28;20129;-64
2023/08/29 06:29:20;;;;;;;23.98;12.48;;;;;;;;;;4989178;28;20054;-67
2023/08/29 06:31:47;;;;;;;22.67;11.68;;;;;;;;;;4991778;28;20040;-66
2023/08/29 06:34:14;;;;;;;26.00;12.50;;;;;;;;;;4991911;28;20046;-66
2023/08/29 06:36:41;;;;;;;29.60;13.18;;;;;;;;;;4990654;28;20214;-64
2023/08/29 06:39:08;;;;;;;21.55;12.75;;;;;;;;;;4991924;28;20050;-65
2023/08/29 06:41:54;;;;;;;30.13;12.65;;;;;;;;;;4977007;28;20050;-65
2023/08/29 06:44:21;;;;;;;25.73;12.27;;;;;;;;;;4975429;28;20120;-65
2023/08/29 06:46:49;;;;;;;22.45;12.63;;;;;;;;;;4983139;28;20129;-65
2023/08/29 06:49:15;;;;;;;20.65;11.70;;;;;;;;;;4982882;28;20042;-64
2023/08/29 06:51:42;;;;;;;28.30;12.55;;;;;;;;;;4986081;28;20598;-65
2023/08/29 06:54:09;;;;;;;24.67;12.10;;;;;;;;;;4982473;28;20042;-66
2023/08/29 06:56:35;;;;;;;22.75;12.52;;;;;;;;;;4981112;28;20076;-65
2023/08/29 06:59:02;;;;;;;23.65;12.48;;;;;;;;;;4960586;28;20053;-66
2023/08/29 07:01:29;;;;;;;25.33;13.13;;;;;;;;;;4979664;28;20081;-65
2023/08/29 07:03:55;;;;;;;25.25;13.10;;;;;;;;;;4981467;28;20060;-66
2023/08/29 07:06:22;;;;;;;23.60;12.57;;;;;;;;;;4978819;28;20030;-65
2023/08/29 07:08:48;;;;;;;30.05;13.68;;;;;;;;;;4981352;28;20045;-64
2023/08/29 07:11:15;;;;;;;28.92;13.18;;;;;;;;;;4982825;28;20531;-63
2023/08/29 07:13:42;;;;;;;29.85;13.35;;;;;;;;;;4979776;28;20045;-67
2023/08/29 07:16:08;;;;;;;25.70;12.23;;;;;;;;;;4982054;28;20045;-64
2023/08/29 07:18:35;;;;;;;25.38;11.98;;;;;;;;;;4982933;28;20032;-64
2023/08/29 07:21:01;;;;;;;28.75;13.15;;;;;;;;;;4992649;28;20044;-66
2023/08/29 07:23:28;;;;;;;27.77;13.35;;;;;;;;;;4989154;28;20098;-65
2023/08/29 07:25:55;;;;;;;26.80;11.20;;;;;;;;;;4990507;28;20136;-64
2023/08/29 07:28:23;;;;;;;22.48;12.65;;;;;;;;;;4991400;28;20556;-63
2023/08/29 07:30:53;;;;;;;27.30;13.15;;;;;;;;;;5002308;28;20049;-63
2023/08/29 07:33:19;;;;;;;24.45;12.63;;;;;;;;;;4989572;28;20045;-65
2023/08/29 07:35:47;;;;;;;24.67;12.63;;;;;;;;;;4989721;28;20044;-62
2023/08/29 07:38:14;;;;;;;24.63;13.25;;;;;;;;;;4991732;28;20042;-65
2023/08/29 07:40:41;;;;;;;24.52;12.13;;;;;;;;;;4990469;28;20064;-66
2023/08/29 07:43:09;;;;;;;25.08;13.23;;;;;;;;;;4989265;28;20060;-62
2023/08/29 07:45:36;;;;;;;29.45;13.15;;;;;;;;;;4991460;28;20051;-64
2023/08/29 07:48:03;;;;;;;25.15;12.85;;;;;;;;;;4991948;28;20601;-65
2023/08/29 07:50:30;;;;;;;24.58;12.80;;;;;;;;;;4993118;28;20141;-64
2023/08/29 07:52:57;;;;;;;25.30;13.35;;;;;;;;;;4993361;28;20589;-64
2023/08/29 07:55:23;;;;;;;27.45;12.98;;;;;;;;;;4990070;28;20104;-64
2023/08/29 07:57:50;;;;;;;23.55;13.18;;;;;;;;;;4996057;28;20045;-63
2023/08/29 08:00:17;;;;;;;24.67;12.45;;;;;;;;;;4993035;28;20062;-63
2023/08/29 08:02:45;;;;;;;26.80;12.73;;;;;;;;;;4989057;28;20045;-62
2023/08/29 08:05:12;;;;;;;29.77;12.90;;;;;;;;;;4992066;28;20057;-64
2023/08/29 08:07:39;;;;;;;26.10;12.73;;;;;;;;;;4995826;28;20080;-66
2023/08/29 08:10:07;;;;;;;28.67;13.02;;;;;;;;;;4998617;28;20143;-64
2023/08/29 08:12:34;;;;;;;27.25;13.15;;;;;;;;;;4984171;28;21507;-65
2023/08/29 08:15:01;;;;;;;31.42;12.90;;;;;;;;;;4991070;28;20045;-63
2023/08/29 08:17:28;;;;;;;27.95;12.85;;;;;;;;;;4992375;28;20045;-63
2023/08/29 08:19:55;;;;;;;29.70;13.93;;;;;;;;;;5009336;28;20038;-66
2023/08/29 08:22:22;;;;;;;34.30;13.60;;;;;;;;;;4993437;28;20106;-63
2023/08/29 08:24:49;;;;;;;39.33;13.95;;;;;;;;;;5007721;28;20054;-63
2023/08/29 08:27:16;;;;;;;28.65;13.25;;;;;;;;;;4993886;28;20095;-63
2023/08/29 08:29:42;;;;;;;26.80;13.20;;;;;;;;;;4993109;28;20080;-62
2023/08/29 08:32:09;;;;;;;30.55;13.93;;;;;;;;;;4992768;28;20092;-63
2023/08/29 08:34:36;;;;;;;29.70;13.20;;;;;;;;;;4990802;28;20116;-64
2023/08/29 08:37:03;;;;;;;24.67;13.02;;;;;;;;;;4993156;28;20492;-63
2023/08/29 08:39:33;;;;;;;29.00;13.52;;;;;;;;;;4997126;28;20041;-64
2023/08/29 08:42:02;;;;;;;27.17;13.48;;;;;;;;;;4993548;28;20404;-64
2023/08/29 08:44:34;;;;;;;28.35;14.30;;;;;;;;;;4994606;28;20160;-63
2023/08/29 08:47:01;;;;;;;35.90;14.20;;;;;;;;;;4979378;28;20034;-64
2023/08/29 08:49:28;;;;;;;24.85;13.10;;;;;;;;;;4995074;28;20660;-64
2023/08/29 08:51:55;;;;;;;26.63;12.98;;;;;;;;;;4996563;28;20042;-62
2023/08/29 08:54:22;;;;;;;26.83;13.90;;;;;;;;;;4993702;28;20045;-64
2023/08/29 08:56:49;;;;;;;27.10;13.43;;;;;;;;;;4997655;28;20034;-61
2023/08/29 08:59:16;;;;;;;24.83;12.90;;;;;;;;;;4994054;28;20148;-62
2023/08/29 09:01:43;;;;;;;30.85;14.05;;;;;;;;;;4994082;28;20038;-64
2023/08/29 09:04:10;;;;;;;27.60;14.40;;;;;;;;;;4994895;28;20112;-64
2023/08/29 09:06:38;;;;;;;28.83;13.27;;;;;;;;;;4994535;28;20034;-64
2023/08/29 09:09:22;;;;;;;29.13;13.23;;;;;;;;;;4992915;28;20077;-64
2023/08/29 09:11:52;;;;;;;26.83;13.55;;;;;;;;;;4994049;28;20420;-63
2023/08/29 09:14:19;;;;;;;27.77;13.85;;;;;;;;;;4992748;28;20038;-63
2023/08/29 09:16:46;;;;;;;29.08;13.25;;;;;;;;;;5004741;28;20063;-64
2023/08/29 09:19:35;;;;;;;23.85;12.10;;;;;;;;;;5012539;28;20125;-63
2023/08/29 09:22:03;;;;;;;26.05;12.90;;;;;;;;;;5022317;28;20044;-64
2023/08/29 09:24:36;;;;;;;26.10;12.82;;;;;;;;;;5021479;28;20087;-63
2023/08/29 09:27:08;;;;;;;33.35;13.30;;;;;;;;;;5021337;28;20137;-61
2023/08/29 09:29:35;;;;;;;32.25;13.65;;;;;;;;;;5022388;28;20049;-62
2023/08/29 09:32:13;;;;;;;27.58;12.57;;;;;;;;;;5022066;28;20276;-62
2023/08/29 09:34:39;;;;;;;32.95;13.88;;;;;;;;;;5019980;28;20037;-62
2023/08/29 09:37:07;;;;;;;26.60;12.88;;;;;;;;;;5025450;28;20455;-63
2023/08/29 09:39:33;;;;;;;29.92;12.82;;;;;;;;;;5024117;28;20041;-63
2023/08/29 09:42:06;;;;;;;34.38;13.20;;;;;;;;;;5024918;28;20041;-63
2023/08/29 09:44:37;;;;;;;29.83;13.45;;;;;;;;;;5024569;28;20057;-63
2023/08/29 09:47:05;;;;;;;25.38;13.05;;;;;;;;;;5025570;28;20436;-63
2023/08/29 09:49:47;;;;;;;28.52;13.35;;;;;;;;;;5024717;28;20036;-62
2023/08/29 09:52:15;;;;;;;27.63;12.77;;;;;;;;;;5012261;28;20051;-65
2023/08/29 09:54:48;;;;;;;29.02;13.43;;;;;;;;;;5014371;28;20056;-63
2023/08/29 09:57:15;;;;;;;28.20;12.82;;;;;;;;;;5012407;28;20040;-65
2023/08/29 09:59:43;;;;;;;27.10;13.55;;;;;;;;;;5014766;28;20201;-64
2023/08/29 10:02:14;;;;;;;28.27;12.85;;;;;;;;;;5012567;28;20135;-63
2023/08/29 10:04:46;;;;;;;29.25;13.60;;;;;;;;;;5013940;28;20045;-64
2023/08/29 10:07:23;;;;;;;26.70;13.45;;;;;;;;;;5013701;28;20033;-63
2023/08/29 10:09:50;;;;;;;30.73;14.45;;;;;;;;;;5012093;28;20090;-65
2023/08/29 10:12:19;;;;;;;32.58;14.68;;;;;;;;;;5013222;28;20413;-67
2023/08/29 10:14:46;;;;;;;29.40;14.23;;;;;;;;;;5014126;28;20033;-66
2023/08/29 10:17:15;;;;;;;29.23;13.57;;;;;;;;;;5013375;28;20056;-65
2023/08/29 10:19:43;;;;;;;31.80;13.68;;;;;;;;;;5014302;28;20036;-66
2023/08/29 10:22:11;;;;;;;32.60;13.15;;;;;;;;;;5012984;28;20068;-65
2023/08/29 10:24:37;;;;;;;30.23;14.15;;;;;;;;;;5013970;28;20654;-67
2023/08/29 10:27:04;;;;;;;34.88;13.65;;;;;;;;;;5013392;28;20036;-66
2023/08/29 10:29:31;;;;;;;31.55;13.80;;;;;;;;;;5014325;28;20036;-69
2023/08/29 10:31:59;;;;;;;32.95;14.02;;;;;;;;;;5012208;28;20505;-65
2023/08/29 10:34:28;;;;;;;26.50;13.30;;;;;;;;;;5012631;28;20124;-65
2023/08/29 10:36:56;;;;;;;26.10;13.52;;;;;;;;;;5013567;28;20057;-63
2023/08/29 10:39:43;;;;;;;31.45;13.93;;;;;;;;;;5029219;28;20087;-65
2023/08/29 10:42:11;;;;;;;25.73;13.35;;;;;;;;;;5028138;28;20124;-66
2023/08/29 10:44:40;;;;;;;29.17;13.73;;;;;;;;;;5029186;28;20096;-63
2023/08/29 10:47:31;;;;;;;31.27;13.90;;;;;;;;;;5013531;28;20512;-63
2023/08/29 10:49:58;;;;;;;24.70;13.25;;;;;;;;;;5029983;28;20748;-63
2023/08/29 10:52:24;;;;;;;28.98;13.85;;;;;;;;;;5027712;28;20079;-65
2023/08/29 10:55:05;;;;;;;25.52;13.10;;;;;;;;;;5013393;28;20370;-63
2023/08/29 10:57:32;;;;;;;28.23;14.20;;;;;;;;;;5028476;28;20052;-64
2023/08/29 10:59:58;;;;;;;28.65;14.45;;;;;;;;;;5029178;28;20070;-64
2023/08/29 11:02:45;;;;;;;27.35;14.77;;;;;;;;;;5007731;28;20049;-66
2023/08/29 11:05:14;;;;;;;29.40;14.52;;;;;;;;;;5008690;28;20045;-62
2023/08/29 11:07:41;;;;;;;25.35;13.73;;;;;;;;;;5009509;28;20092;-63
2023/08/29 11:10:17;;;;;;;28.77;13.32;;;;;;;;;;5009278;28;20042;-65
2023/08/29 11:13:06;;;;;;;29.48;13.93;;;;;;;;;;5008359;28;20083;-65
2023/08/29 11:15:50;;;;;;;25.52;13.50;;;;;;;;;;5008830;28;20124;-64
2023/08/29 11:18:21;;;;;;;28.92;14.40;;;;;;;;;;5000733;28;20054;-63
2023/08/29 11:20:49;;;;;;;26.30;14.02;;;;;;;;;;4999719;28;20041;-65
2023/08/29 11:23:16;;;;;;;28.00;14.68;;;;;;;;;;4997856;28;20496;-64
2023/08/29 11:25:42;;;;;;;26.90;14.02;;;;;;;;;;4990408;28;20041;-63
2023/08/29 11:28:09;;;;;;;32.10;14.73;;;;;;;;;;5000134;28;20042;-64
2023/08/29 11:30:36;;;;;;;30.30;14.68;;;;;;;;;;4983200;28;20116;-66
2023/08/29 11:33:04;;;;;;;27.73;14.27;;;;;;;;;;4998737;28;20080;-65
2023/08/29 11:35:32;;;;;;;28.25;14.38;;;;;;;;;;4997080;28;20128;-63
2023/08/29 11:37:59;;;;;;;29.77;14.88;;;;;;;;;;4999512;28;20121;-64
2023/08/29 11:40:27;;;;;;;26.88;13.85;;;;;;;;;;5006250;28;20048;-65
2023/08/29 11:42:53;;;;;;;28.02;14.30;;;;;;;;;;5010100;28;20067;-63
2023/08/29 11:45:20;;;;;;;26.58;15.80;;;;;;;;;;5011768;28;20107;-63
2023/08/29 11:47:49;;;;;;;32.13;15.05;;;;;;;;;;5009975;28;20025;-62
2023/08/29 11:50:16;;;;;;;39.92;15.57;;;;;;;;;;5012196;28;20446;-62
2023/08/29 11:52:43;;;;;;;36.38;15.07;;;;;;;;;;4995521;28;20042;-67
2023/08/29 11:55:11;;;;;;;31.77;14.20;;;;;;;;;;4989970;28;20125;-66
2023/08/29 11:57:38;;;;;;;28.73;13.80;;;;;;;;;;4992564;28;20054;-62
2023/08/29 12:00:10;;;;;;;32.22;14.40;;;;;;;;;;4991229;28;20042;-62
2023/08/29 12:02:37;;;;;;;37.35;14.65;;;;;;;;;;4993078;28;21595;-63
2023/08/29 12:05:12;;;;;;;31.10;14.70;;;;;;;;;;4996026;28;20046;-64
2023/08/29 12:07:39;;;;;;;29.80;13.90;;;;;;;;;;4995304;28;20609;-62
2023/08/29 12:10:08;;;;;;;29.50;14.38;;;;;;;;;;4998098;28;20045;-62
2023/08/29 12:12:36;;;;;;;29.70;14.18;;;;;;;;;;5002460;28;20046;-64
2023/08/29 12:15:05;;;;;;;35.53;14.23;;;;;;;;;;4997735;28;20069;-65
2023/08/29 12:17:33;;;;;;;29.67;14.23;;;;;;;;;;5007681;28;20049;-65
2023/08/29 12:20:00;;;;;;;36.80;13.55;;;;;;;;;;4995312;28;20049;-65
2023/08/29 12:22:30;;;;;;;41.97;13.55;;;;;;;;;;4991922;28;20141;-64
2023/08/29 12:24:59;;;;;;;34.05;14.15;;;;;;;;;;4991592;28;20072;-65
2023/08/29 12:27:26;;;;;;;39.33;13.75;;;;;;;;;;4988471;28;20033;-64
2023/08/29 12:29:53;;;;;;;31.70;13.60;;;;;;;;;;4990829;28;20038;-61
2023/08/29 12:32:25;;;;;;;28.58;13.38;;;;;;;;;;4989345;28;20160;-62
2023/08/29 12:34:52;;;;;;;31.85;14.27;;;;;;;;;;4990594;28;20050;-61
2023/08/29 12:37:18;;;;;;;35.72;13.88;;;;;;;;;;4989571;28;20580;-62
2023/08/29 12:39:45;;;;;;;37.53;14.18;;;;;;;;;;4990499;28;20707;-61
2023/08/29 12:42:12;;;;;;;43.90;14.13;;;;;;;;;;4989363;28;20056;-63
2023/08/29 12:44:39;;;;;;;36.70;14.13;;;;;;;;;;4973334;28;20221;-61
2023/08/29 12:47:05;;;;;;;34.78;14.15;;;;;;;;;;4986888;28;20030;-61
2023/08/29 12:49:32;;;;;;;32.17;13.27;;;;;;;;;;4984835;28;20089;-60
2023/08/29 12:51:58;;;;;;;31.92;14.35;;;;;;;;;;4986631;28;20525;-62
2023/08/29 12:54:26;;;;;;;25.60;12.65;;;;;;;;;;4988440;28;20049;-60
2023/08/29 12:56:53;;;;;;;28.08;13.98;;;;;;;;;;4989924;28;20054;-60
2023/08/29 12:59:19;;;;;;;28.38;13.00;;;;;;;;;;4989964;28;20038;-63
2023/08/29 13:01:46;;;;;;;34.17;13.25;;;;;;;;;;4992136;28;20100;-60
2023/08/29 13:04:13;;;;;;;26.50;12.77;;;;;;;;;;4992748;28;20141;-61
2023/08/29 13:06:40;;;;;;;32.58;13.45;;;;;;;;;;4993741;28;20041;-63
2023/08/29 13:09:07;;;;;;;26.63;13.68;;;;;;;;;;4996965;28;20404;-65
2023/08/29 13:11:33;;;;;;;35.03;13.43;;;;;;;;;;4991266;28;20528;-63
2023/08/29 13:14:00;;;;;;;29.67;13.45;;;;;;;;;;4995801;28;20062;-66
2023/08/29 13:16:33;;;;;;;30.27;13.02;;;;;;;;;;4995472;28;20060;-64
2023/08/29 13:19:00;;;;;;;29.10;13.15;;;;;;;;;;4995331;28;20119;-60
2023/08/29 13:21:27;;;;;;;32.65;13.93;;;;;;;;;;4994573;28;20559;-61
2023/08/29 13:23:53;;;;;;;30.35;14.05;;;;;;;;;;4993127;28;20473;-61
2023/08/29 13:26:20;;;;;;;33.60;13.50;;;;;;;;;;4990836;28;20042;-61
2023/08/29 13:28:46;;;;;;;35.03;13.77;;;;;;;;;;4994409;28;20168;-63
2023/08/29 13:31:15;;;;;;;34.50;13.73;;;;;;;;;;4994143;28;20042;-64
2023/08/29 13:33:59;;;;;;;40.67;14.40;;;;;;;;;;4963624;28;20133;-63
2023/08/29 13:36:26;;;;;;;52.17;15.65;;;;;;;;;;4964243;28;20529;-61
2023/08/29 13:38:52;;;;;;;51.30;15.43;;;;;;;;;;4965016;28;20558;-63
2023/08/29 13:41:39;;;;;;;56.03;15.95;;;;;;;;;;4992764;28;20084;-61
2023/08/29 13:44:06;;;;;;;39.03;13.88;;;;;;;;;;5001949;28;20357;-62
2023/08/29 13:46:33;;;;;;;45.60;14.48;;;;;;;;;;4989662;28;20036;-64
2023/08/29 13:48:59;;;;;;;43.85;15.45;;;;;;;;;;5002779;28;20140;-62
2023/08/29 13:51:27;;;;;;;41.90;14.90;;;;;;;;;;5001247;28;20421;-60
2023/08/29 13:53:53;;;;;;;38.45;15.38;;;;;;;;;;5018755;28;20041;-60
2023/08/29 13:56:20;;;;;;;39.65;14.82;;;;;;;;;;5002623;28;20133;-61
2023/08/29 13:58:47;;;;;;;29.73;13.13;;;;;;;;;;5002235;28;20668;-63
2023/08/29 14:01:13;;;;;;;35.58;14.75;;;;;;;;;;5003632;28;21959;-61
2023/08/29 14:03:40;;;;;;;37.78;14.13;;;;;;;;;;4999969;28;20488;-61
2023/08/29 14:06:07;;;;;;;31.23;13.55;;;;;;;;;;5028296;28;20115;-63
2023/08/29 14:08:33;;;;;;;29.55;13.75;;;;;;;;;;5040851;28;20585;-62
2023/08/29 14:11:01;;;;;;;28.63;13.15;;;;;;;;;;5048589;28;20052;-61
2023/08/29 14:13:27;;;;;;;30.17;13.43;;;;;;;;;;5006556;28;20363;-63
2023/08/29 14:16:00;;;;;;;24.48;13.88;;;;;;;;;;4994891;28;20456;-63
2023/08/29 14:18:27;;;;;;;31.80;13.65;;;;;;;;;;4991257;28;20232;-62
2023/08/29 14:20:53;;;;;;;34.78;15.00;;;;;;;;;;4991121;28;20437;-62